Portada
METAR-TAF:

METAR-TAF

Aeroports :

Odessa, Ucraïna

latitud: 46-26N, longitud: 030-46E, altitud: 42 m

Observació

L'informe es va fer fa 28 minuts, a les 20:00 UTC
Vent 10 kt del Nord/Nord-Est
Temperatura 28°C
Humitat 42%
Pressió 1019 hPa
Visibilitat 10 km o més
sense núvols per sota de 1500 mi sense presència de cumulonimbus.

METAR: UKOO 242000Z 03005MPS CAVOK 28/14 Q1019 R34/090060 NOSIG

Hora: 23:28 (20:28 UTC)

Pronòstic

L'informe es va fer fa 3 hores i 22 minuts, a les 17:06 UTC
Pronòstic vàlid del 24 a les 18 UTC al 25 a les 18 UTC
Vent 10 kt del Nord/Nord-Est amb ràfegues de 25 kt
Visibilitat 10 km o més
sense núvols per sota de 1500 mi sense presència de cumulonimbus.
Temporalment
l' 25 a les 09 UTC al 25 a les 18 UTC
Vent 6 kt del Est/Nord-Est

TAF: UKOO 241706Z 2418/2518 02005G13MPS CAVOK TX32/2512Z TN21/2502Z TEMPO 2509/2518 06003MPS

Observacions i pronòstics meteorològics de més de 4000 aeroports (METAR i TAF).

Les estacions disponibles són els punts grocs i vermells al mapa.

Posi el ratolí al punt desitjat per veure el nom de l'estació.

Feu clic per veure les observacions i els pronòstics meteorològics.

Per canviar el mapa: feu clic els botons verds amb una creu de color negre per apropar; al botó verd amb un guió per allunyar la imatge; o en les fletxes verdes per a mapes adjacents.


METAR-TAF: